createdAt,value
2018-06-19T00:00:48.701Z,0.00
2018-06-19T00:02:41.581Z,0.00
2018-06-19T00:03:41.469Z,0.00
2018-06-19T00:05:34.356Z,0.00
2018-06-19T00:06:34.287Z,0.00
2018-06-19T00:08:27.176Z,0.00
2018-06-19T00:09:27.051Z,0.00
2018-06-19T00:11:20.007Z,0.00
2018-06-19T00:12:19.917Z,0.00
2018-06-19T00:14:13.280Z,0.00
2018-06-19T00:15:12.768Z,0.00
2018-06-19T00:17:06.157Z,0.00
2018-06-19T00:18:06.038Z,0.00
2018-06-19T00:19:58.894Z,0.00
2018-06-19T00:20:58.816Z,0.00
2018-06-19T00:22:51.622Z,0.00
2018-06-19T00:23:51.536Z,0.00
2018-06-19T00:25:44.416Z,0.00
2018-06-19T00:26:44.270Z,0.00
2018-06-19T00:28:37.115Z,0.00
2018-06-19T00:29:37.024Z,0.00
2018-06-19T00:31:29.907Z,0.00
2018-06-19T00:32:29.776Z,0.00
2018-06-19T00:34:22.616Z,0.00
2018-06-19T00:35:22.522Z,0.00
2018-06-19T00:37:15.607Z,0.00
2018-06-19T00:38:15.502Z,0.00
2018-06-19T00:40:08.870Z,0.00
2018-06-19T00:41:08.645Z,0.00
2018-06-19T00:43:01.476Z,0.00
2018-06-19T00:44:01.379Z,0.00
2018-06-19T00:45:54.244Z,0.00
2018-06-19T00:46:54.209Z,0.00
2018-06-19T00:48:48.059Z,0.00
2018-06-19T00:49:46.958Z,0.00
2018-06-19T00:51:40.315Z,0.00
2018-06-19T00:52:39.745Z,0.00
2018-06-19T00:54:32.666Z,0.00
2018-06-19T00:55:32.572Z,0.00
2018-06-19T00:57:25.273Z,0.00
2018-06-19T00:58:25.154Z,0.00
2018-06-19T01:00:18.522Z,0.00
2018-06-19T01:01:18.429Z,0.00
2018-06-19T01:03:11.233Z,0.00
2018-06-19T01:04:11.146Z,0.00
2018-06-19T01:06:04.039Z,0.00
2018-06-19T01:07:03.940Z,0.00
2018-06-19T01:08:56.775Z,0.00
2018-06-19T01:09:56.650Z,0.00
2018-06-19T01:11:50.077Z,0.00
2018-06-19T01:12:50.240Z,0.00
2018-06-19T01:14:42.880Z,0.00
2018-06-19T01:15:42.802Z,0.00
2018-06-19T01:17:35.611Z,0.00
2018-06-19T01:18:35.486Z,0.00
2018-06-19T01:20:28.762Z,0.00
2018-06-19T01:21:28.175Z,0.00
2018-06-19T01:23:21.424Z,0.00
2018-06-19T01:24:21.339Z,0.00
2018-06-19T01:26:14.186Z,0.00
2018-06-19T01:27:14.057Z,0.00
2018-06-19T01:29:07.450Z,0.00
2018-06-19T01:30:06.839Z,0.00
2018-06-19T01:32:00.079Z,0.00
2018-06-19T01:32:59.978Z,0.00
2018-06-19T01:34:52.842Z,0.00
2018-06-19T01:35:52.741Z,0.00
2018-06-19T01:37:46.086Z,0.00
2018-06-19T01:38:45.473Z,0.00
2018-06-19T01:40:38.335Z,0.00
2018-06-19T01:41:38.220Z,0.00
2018-06-19T01:43:31.065Z,0.00
2018-06-19T01:44:31.008Z,0.00
2018-06-19T01:46:23.831Z,0.00
2018-06-19T01:47:23.719Z,0.00
2018-06-19T01:49:17.111Z,0.00
2018-06-19T01:50:16.485Z,0.00
2018-06-19T01:52:09.835Z,0.00
2018-06-19T01:53:09.218Z,0.00
2018-06-19T01:55:02.070Z,0.00
2018-06-19T01:56:01.983Z,0.00
2018-06-19T01:57:54.820Z,0.00
2018-06-19T01:58:54.717Z,0.00
2018-06-19T02:00:47.483Z,0.00
2018-06-19T02:01:47.366Z,0.00
2018-06-19T02:03:40.217Z,0.00
2018-06-19T02:04:40.110Z,0.00
2018-06-19T02:06:32.874Z,0.00
2018-06-19T02:07:32.777Z,0.00
2018-06-19T02:09:25.594Z,0.00
2018-06-19T02:10:25.509Z,0.00
2018-06-19T02:12:18.390Z,0.00
2018-06-19T02:13:18.411Z,0.00
2018-06-19T02:15:11.230Z,0.00
2018-06-19T02:16:11.009Z,0.00
2018-06-19T02:18:03.918Z,0.00
2018-06-19T02:19:03.757Z,0.00
2018-06-19T02:20:56.604Z,0.00
2018-06-19T02:21:56.527Z,0.00
2018-06-19T02:23:49.846Z,0.00
2018-06-19T02:24:49.934Z,0.00
2018-06-19T02:26:42.523Z,4.00
2018-06-19T02:27:42.412Z,4.00
2018-06-19T02:29:35.829Z,0.00
2018-06-19T02:30:35.190Z,4.00
2018-06-19T02:32:28.011Z,4.00
2018-06-19T02:33:27.928Z,4.00
2018-06-19T02:35:21.782Z,4.00
2018-06-19T02:36:21.607Z,8.00
2018-06-19T02:38:14.474Z,4.00
2018-06-19T02:39:14.334Z,8.00
2018-06-19T02:41:07.712Z,12.00
2018-06-19T02:42:07.100Z,8.00
2018-06-19T02:43:59.949Z,12.00
2018-06-19T02:44:59.829Z,16.00
2018-06-19T02:46:52.701Z,16.00
2018-06-19T02:47:52.578Z,16.00
2018-06-19T02:49:45.461Z,20.00
2018-06-19T02:50:45.335Z,20.00
2018-06-19T02:52:38.183Z,28.00
2018-06-19T02:53:38.082Z,28.00
2018-06-19T02:55:31.484Z,36.00
2018-06-19T02:56:30.843Z,40.00
2018-06-19T02:58:23.716Z,40.00
2018-06-19T02:59:23.597Z,48.00
2018-06-19T03:01:16.345Z,56.00
2018-06-19T03:02:16.233Z,64.00
2018-06-19T03:04:09.596Z,72.00
2018-06-19T03:05:08.985Z,80.00
2018-06-19T03:07:01.843Z,100.00
2018-06-19T03:08:01.741Z,108.00
2018-06-19T03:09:54.587Z,128.00
2018-06-19T03:10:54.477Z,136.00
2018-06-19T03:12:47.374Z,156.00
2018-06-19T03:13:47.248Z,164.00
2018-06-19T03:15:39.992Z,184.00
2018-06-19T03:16:39.918Z,196.00
2018-06-19T03:18:32.817Z,212.00
2018-06-19T03:19:32.786Z,224.00
2018-06-19T03:21:25.500Z,248.00
2018-06-19T03:22:25.408Z,256.00
2018-06-19T03:24:18.290Z,276.00
2018-06-19T03:25:18.214Z,288.00
2018-06-19T03:27:10.971Z,308.00
2018-06-19T03:28:11.320Z,320.00
2018-06-19T03:30:03.812Z,340.00
2018-06-19T03:31:03.621Z,356.00
2018-06-19T03:32:57.002Z,372.00
2018-06-19T03:33:56.391Z,388.00
2018-06-19T03:35:49.153Z,408.00
2018-06-19T03:36:49.045Z,420.00
2018-06-19T03:38:41.895Z,448.00
2018-06-19T03:39:41.799Z,456.00
2018-06-19T03:41:34.623Z,480.00
2018-06-19T03:42:34.533Z,492.00
2018-06-19T03:44:27.268Z,512.00
2018-06-19T03:45:27.177Z,520.00
2018-06-19T03:47:20.536Z,544.00
2018-06-19T03:48:19.945Z,556.00
2018-06-19T03:50:12.681Z,572.00
2018-06-19T03:51:12.576Z,580.00
2018-06-19T03:53:05.435Z,600.00
2018-06-19T03:54:05.309Z,608.00
2018-06-19T03:55:58.071Z,628.00
2018-06-19T03:56:57.962Z,640.00
2018-06-19T03:58:51.312Z,656.00
2018-06-19T03:59:50.723Z,664.00
2018-06-19T04:01:44.102Z,684.00
2018-06-19T04:02:43.352Z,692.00
2018-06-19T04:04:36.102Z,716.00
2018-06-19T04:05:36.031Z,724.00
2018-06-19T04:07:28.932Z,744.00
2018-06-19T04:08:28.778Z,752.00
2018-06-19T04:10:21.651Z,772.00
2018-06-19T04:11:21.527Z,780.00
2018-06-19T04:13:14.424Z,796.00
2018-06-19T04:14:14.281Z,800.00
2018-06-19T04:16:07.634Z,816.00
2018-06-19T04:17:07.054Z,820.00
2018-06-19T04:18:59.845Z,836.00
2018-06-19T04:19:59.750Z,844.00
2018-06-19T04:21:52.517Z,856.00
2018-06-19T04:22:52.396Z,864.00
2018-06-19T04:24:45.805Z,880.00
2018-06-19T04:25:45.160Z,892.00
2018-06-19T04:27:41.088Z,916.00
2018-06-19T04:28:40.880Z,932.00
2018-06-19T04:30:35.274Z,956.00
2018-06-19T04:31:35.168Z,960.00
2018-06-19T04:33:28.039Z,980.00
2018-06-19T04:34:27.911Z,1000.00
2018-06-19T04:36:20.771Z,1028.00
2018-06-19T04:37:20.564Z,1044.00
2018-06-19T04:39:13.293Z,1048.00
2018-06-19T04:40:13.196Z,1052.00
2018-06-19T04:42:06.068Z,1076.00
2018-06-19T04:43:05.948Z,1092.00
2018-06-19T04:44:59.726Z,1112.00
2018-06-19T04:45:59.615Z,1116.00
2018-06-19T04:47:52.561Z,1144.00
2018-06-19T04:48:52.486Z,1164.00
2018-06-19T04:50:45.846Z,1208.00
2018-06-19T04:51:45.211Z,1232.00
2018-06-19T04:53:37.965Z,1284.00
2018-06-19T04:54:37.866Z,1328.00
2018-06-19T04:56:32.181Z,1380.00
2018-06-19T04:57:32.047Z,1396.00
2018-06-19T04:59:24.893Z,1428.00
2018-06-19T05:00:24.800Z,1436.00
2018-06-19T05:02:18.124Z,1440.00
2018-06-19T05:03:17.975Z,1452.00
2018-06-19T05:05:13.824Z,1476.00
2018-06-19T05:06:13.690Z,1480.00
2018-06-19T05:08:06.544Z,1500.00
2018-06-19T05:09:06.431Z,1500.00
2018-06-19T05:10:59.349Z,1512.00
2018-06-19T05:11:59.226Z,1512.00
2018-06-19T05:13:52.533Z,1524.00
2018-06-19T05:14:51.922Z,1524.00
2018-06-19T05:16:45.265Z,1536.00
2018-06-19T05:17:45.095Z,1536.00
2018-06-19T05:19:37.956Z,1536.00
2018-06-19T05:20:37.830Z,1536.00
2018-06-19T05:22:31.203Z,1532.00
2018-06-19T05:23:30.580Z,1540.00
2018-06-19T05:25:23.526Z,1552.00
2018-06-19T05:26:23.328Z,1560.00
2018-06-19T05:28:16.177Z,1540.00
2018-06-19T05:29:16.081Z,1528.00
2018-06-19T05:31:09.479Z,1512.00
2018-06-19T05:32:08.847Z,1492.00
2018-06-19T05:34:01.679Z,1216.00
2018-06-19T05:35:01.603Z,1280.00
2018-06-19T05:36:54.975Z,1296.00
2018-06-19T05:37:54.741Z,1596.00
2018-06-19T05:39:47.595Z,1668.00
2018-06-19T05:40:47.500Z,1444.00
2018-06-19T05:42:40.353Z,1868.00
2018-06-19T05:43:40.257Z,1884.00
2018-06-19T05:45:33.676Z,1660.00
2018-06-19T05:46:32.906Z,1540.00
2018-06-19T05:48:26.245Z,1416.00
2018-06-19T05:49:25.645Z,1400.00
2018-06-19T05:51:18.492Z,1412.00
2018-06-19T05:52:18.390Z,1384.00
2018-06-19T05:54:11.225Z,1368.00
2018-06-19T05:55:11.152Z,1392.00
2018-06-19T05:57:04.025Z,1404.00
2018-06-19T05:58:03.895Z,1356.00
2018-06-19T05:59:57.186Z,1268.00
2018-06-19T06:00:57.045Z,1224.00
2018-06-19T06:02:49.909Z,1184.00
2018-06-19T06:03:49.801Z,1164.00
2018-06-19T06:05:42.703Z,1160.00
2018-06-19T06:06:42.557Z,1156.00
2018-06-19T06:08:35.378Z,1132.00
2018-06-19T06:09:35.289Z,1100.00
2018-06-19T06:11:28.147Z,1080.00
2018-06-19T06:12:28.043Z,1072.00
2018-06-19T06:14:20.882Z,1028.00
2018-06-19T06:15:20.811Z,1012.00
2018-06-19T06:17:13.662Z,1012.00
2018-06-19T06:18:13.593Z,1044.00
2018-06-19T06:20:06.399Z,1064.00
2018-06-19T06:21:06.308Z,1052.00
2018-06-19T06:22:59.160Z,1048.00
2018-06-19T06:23:59.147Z,1052.00
2018-06-19T06:25:51.905Z,1072.00
2018-06-19T06:26:51.838Z,1076.00
2018-06-19T06:28:44.630Z,1092.00
2018-06-19T06:29:44.543Z,1108.00
2018-06-19T06:31:37.413Z,1156.00
2018-06-19T06:32:37.302Z,1172.00
2018-06-19T06:34:30.137Z,1192.00
2018-06-19T06:35:30.044Z,1196.00
2018-06-19T06:37:22.904Z,1204.00
2018-06-19T06:38:22.783Z,1224.00
2018-06-19T06:40:16.203Z,1244.00
2018-06-19T06:41:15.567Z,1252.00
2018-06-19T06:43:08.399Z,1260.00
2018-06-19T06:44:08.287Z,1272.00
2018-06-19T06:46:01.164Z,1288.00
2018-06-19T06:47:01.052Z,1300.00
2018-06-19T06:48:53.891Z,1320.00
2018-06-19T06:49:53.787Z,1328.00
2018-06-19T06:51:46.637Z,1368.00
2018-06-19T06:52:46.546Z,1396.00
2018-06-19T06:54:39.422Z,1464.00
2018-06-19T06:55:39.289Z,1508.00
2018-06-19T06:57:32.649Z,1596.00
2018-06-19T06:58:32.056Z,1620.00
2018-06-19T07:00:24.883Z,1664.00
2018-06-19T07:01:24.789Z,1680.00
2018-06-19T07:03:17.639Z,1680.00
2018-06-19T07:04:17.542Z,1688.00
2018-06-19T07:06:10.420Z,1732.00
2018-06-19T07:07:10.315Z,1756.00
2018-06-19T07:09:03.165Z,1776.00
2018-06-19T07:10:03.064Z,1760.00
2018-06-19T07:11:55.891Z,1756.00
2018-06-19T07:12:55.800Z,1788.00
2018-06-19T07:14:49.063Z,1828.00
2018-06-19T07:15:48.964Z,1832.00
2018-06-19T07:17:42.312Z,1912.00
2018-06-19T07:18:41.699Z,1960.00
2018-06-19T07:20:34.671Z,2036.00
2018-06-19T07:21:34.561Z,2064.00
2018-06-19T07:23:27.404Z,2140.00
2018-06-19T07:24:27.313Z,2188.00
2018-06-19T07:26:20.665Z,2936.00
2018-06-19T07:27:20.056Z,2124.00
2018-06-19T07:29:12.909Z,2004.00
2018-06-19T07:30:12.787Z,1988.00
2018-06-19T07:32:05.692Z,1904.00
2018-06-19T07:33:05.560Z,1880.00
2018-06-19T07:34:58.408Z,1912.00
2018-06-19T07:35:58.312Z,1900.00
2018-06-19T07:37:51.186Z,1916.00
2018-06-19T07:38:51.042Z,1928.00
2018-06-19T07:40:43.890Z,1888.00
2018-06-19T07:41:43.814Z,1892.00
2018-06-19T07:43:36.642Z,1968.00
2018-06-19T07:44:36.542Z,2012.00
2018-06-19T07:46:29.451Z,2048.00
2018-06-19T07:47:29.302Z,2068.00
2018-06-19T07:49:22.132Z,2084.00
2018-06-19T07:50:22.060Z,2048.00
2018-06-19T07:52:15.407Z,2052.00
2018-06-19T07:53:14.816Z,2044.00
2018-06-19T07:55:08.554Z,1980.00
2018-06-19T07:56:08.490Z,2000.00
2018-06-19T07:58:01.311Z,2084.00
2018-06-19T07:59:01.214Z,2160.00
2018-06-19T08:00:54.568Z,2332.00
2018-06-19T08:01:53.966Z,2412.00
2018-06-19T08:03:46.817Z,2492.00
2018-06-19T08:04:46.719Z,2520.00
2018-06-19T08:06:39.564Z,2600.00
2018-06-19T08:07:39.467Z,2664.00
2018-06-19T08:09:33.240Z,2780.00
2018-06-19T08:10:33.149Z,2856.00
2018-06-19T08:12:25.982Z,2788.00
2018-06-19T08:13:25.938Z,2800.00
2018-06-19T08:15:18.773Z,2932.00
2018-06-19T08:16:18.665Z,2976.00
2018-06-19T08:18:11.501Z,2804.00
2018-06-19T08:19:11.442Z,2780.00
2018-06-19T08:21:04.239Z,3016.00
2018-06-19T08:22:04.138Z,3084.00
2018-06-19T08:23:57.018Z,2824.00
2018-06-19T08:24:56.895Z,2728.00
2018-06-19T08:26:49.724Z,2868.00
2018-06-19T08:27:49.643Z,2588.00
2018-06-19T08:29:42.498Z,2572.00
2018-06-19T08:30:42.390Z,2688.00
2018-06-19T08:32:36.647Z,2920.00
2018-06-19T08:33:36.576Z,2888.00
2018-06-19T08:35:29.413Z,3292.00
2018-06-19T08:36:29.321Z,2944.00
2018-06-19T08:38:22.149Z,2640.00
2018-06-19T08:39:22.056Z,2592.00
2018-06-19T08:41:14.918Z,2712.00
2018-06-19T08:42:14.814Z,2800.00
2018-06-19T08:44:07.659Z,2908.00
2018-06-19T08:45:07.569Z,2916.00
2018-06-19T08:47:00.423Z,2940.00
2018-06-19T08:48:00.371Z,2992.00
2018-06-19T08:49:53.166Z,2988.00
2018-06-19T08:50:53.066Z,3016.00
2018-06-19T08:52:45.907Z,3236.00
2018-06-19T08:53:45.815Z,3380.00
2018-06-19T08:55:38.653Z,3632.00
2018-06-19T08:56:38.562Z,3512.00
2018-06-19T08:58:31.465Z,3376.00
2018-06-19T08:59:31.336Z,3344.00
2018-06-19T09:01:24.162Z,3308.00
2018-06-19T09:02:24.058Z,3396.00
2018-06-19T09:04:16.921Z,3392.00
2018-06-19T09:05:16.810Z,3324.00
2018-06-19T09:07:09.666Z,3420.00
2018-06-19T09:08:09.681Z,3892.00
2018-06-19T09:10:03.485Z,4716.00
2018-06-19T09:11:03.348Z,3300.00
2018-06-19T09:12:56.177Z,3176.00
2018-06-19T09:13:56.093Z,3112.00
2018-06-19T09:15:48.995Z,3028.00
2018-06-19T09:16:48.853Z,2992.00
2018-06-19T09:18:41.739Z,2980.00
2018-06-19T09:19:41.593Z,2952.00
2018-06-19T09:21:34.847Z,2852.00
2018-06-19T09:22:34.740Z,2828.00
2018-06-19T09:24:27.589Z,2912.00
2018-06-19T09:25:27.501Z,2976.00
2018-06-19T09:27:20.350Z,3180.00
2018-06-19T09:28:20.250Z,3236.00
2018-06-19T09:30:13.115Z,3564.00
2018-06-19T09:31:12.990Z,3412.00
2018-06-19T09:33:05.863Z,5424.00
2018-06-19T09:34:05.749Z,5464.00
2018-06-19T09:35:58.600Z,4548.00
2018-06-19T09:36:58.493Z,5064.00
2018-06-19T09:38:51.860Z,4864.00
2018-06-19T09:39:51.391Z,3692.00
2018-06-19T09:41:44.096Z,3540.00
2018-06-19T09:42:43.996Z,4036.00
2018-06-19T09:44:36.844Z,3812.00
2018-06-19T09:45:36.737Z,3868.00
2018-06-19T09:47:29.594Z,3876.00
2018-06-19T09:48:29.507Z,3760.00
2018-06-19T09:50:22.347Z,3704.00
2018-06-19T09:51:22.247Z,3780.00
2018-06-19T09:53:15.119Z,4036.00
2018-06-19T09:54:15.012Z,4024.00
2018-06-19T09:56:07.867Z,3868.00
2018-06-19T09:57:07.751Z,3844.00
2018-06-19T09:59:00.694Z,3936.00
2018-06-19T10:00:00.515Z,3924.00
2018-06-19T10:01:53.843Z,3860.00
2018-06-19T10:02:53.751Z,3824.00
2018-06-19T10:04:46.619Z,3876.00
2018-06-19T10:05:46.575Z,3836.00
2018-06-19T10:07:39.798Z,3936.00
2018-06-19T10:08:39.681Z,4120.00
2018-06-19T10:10:32.512Z,4052.00
2018-06-19T10:11:32.408Z,4068.00
2018-06-19T10:13:25.272Z,4120.00
2018-06-19T10:14:25.178Z,4224.00
2018-06-19T10:16:18.014Z,4312.00
2018-06-19T10:17:17.924Z,4184.00
2018-06-19T10:19:10.863Z,4388.00
2018-06-19T10:20:10.751Z,4304.00
2018-06-19T10:22:03.637Z,4856.00
2018-06-19T10:23:03.515Z,4292.00
2018-06-19T10:24:56.380Z,4208.00
2018-06-19T10:25:56.276Z,4224.00
2018-06-19T10:27:49.125Z,4224.00
2018-06-19T10:28:49.031Z,4180.00
2018-06-19T10:30:42.250Z,4128.00
2018-06-19T10:31:42.173Z,4120.00
2018-06-19T10:33:35.039Z,4076.00
2018-06-19T10:34:34.929Z,4044.00
2018-06-19T10:36:27.780Z,3960.00
2018-06-19T10:37:27.691Z,4000.00
2018-06-19T10:39:21.951Z,4068.00
2018-06-19T10:40:21.860Z,4020.00
2018-06-19T10:42:15.097Z,3864.00
2018-06-19T10:43:15.024Z,4036.00
2018-06-19T10:45:08.304Z,3936.00
2018-06-19T10:46:08.211Z,3768.00
2018-06-19T10:48:01.031Z,3720.00
2018-06-19T10:49:00.954Z,3784.00
2018-06-19T10:50:53.762Z,3788.00
2018-06-19T10:51:53.661Z,3688.00
2018-06-19T10:53:46.526Z,3788.00
2018-06-19T10:54:46.433Z,4096.00
2018-06-19T10:56:39.281Z,4572.00
2018-06-19T10:57:39.183Z,4884.00
2018-06-19T10:59:32.023Z,5820.00
2018-06-19T11:00:31.918Z,4512.00
2018-06-19T11:02:24.753Z,4212.00
2018-06-19T11:03:24.667Z,4212.00
2018-06-19T11:05:18.101Z,4520.00
2018-06-19T11:06:17.924Z,4836.00
2018-06-19T11:08:12.301Z,5304.00
2018-06-19T11:09:12.191Z,6760.00
2018-06-19T11:11:04.991Z,7044.00
2018-06-19T11:12:04.887Z,5056.00
2018-06-19T11:13:57.729Z,6988.00
2018-06-19T11:14:57.619Z,4436.00
2018-06-19T11:16:50.471Z,5068.00
2018-06-19T11:17:50.385Z,6092.00
2018-06-19T11:19:43.233Z,4364.00
2018-06-19T11:20:43.216Z,4128.00
2018-06-19T11:22:35.948Z,3860.00
2018-06-19T11:23:35.901Z,3592.00
2018-06-19T11:25:29.228Z,3584.00
2018-06-19T11:26:29.131Z,3500.00
2018-06-19T11:28:21.990Z,3412.00
2018-06-19T11:29:21.871Z,3428.00
2018-06-19T11:31:14.712Z,3424.00
2018-06-19T11:32:14.628Z,3524.00
2018-06-19T11:34:07.490Z,3788.00
2018-06-19T11:35:07.413Z,3936.00
2018-06-19T11:37:00.765Z,4652.00
2018-06-19T11:38:00.156Z,4180.00
2018-06-19T11:39:53.504Z,3848.00
2018-06-19T11:40:52.866Z,3876.00
2018-06-19T11:42:45.709Z,4028.00
2018-06-19T11:43:45.637Z,3948.00
2018-06-19T11:45:38.469Z,3820.00
2018-06-19T11:46:38.383Z,3884.00
2018-06-19T11:48:31.742Z,4080.00
2018-06-19T11:49:31.150Z,4392.00
2018-06-19T11:51:24.084Z,4208.00
2018-06-19T11:52:23.885Z,4204.00
2018-06-19T11:54:16.747Z,4772.00
2018-06-19T11:55:16.632Z,4360.00
2018-06-19T11:57:09.475Z,4656.00
2018-06-19T11:58:09.366Z,4584.00
2018-06-19T12:00:02.738Z,5744.00
2018-06-19T12:01:02.652Z,5144.00
2018-06-19T12:02:56.018Z,5084.00
2018-06-19T12:03:55.380Z,6744.00
2018-06-19T12:05:48.219Z,7024.00
2018-06-19T12:06:48.166Z,6764.00
2018-06-19T12:08:41.087Z,6904.00
2018-06-19T12:09:40.999Z,5300.00
2018-06-19T12:11:34.349Z,6464.00
2018-06-19T12:12:33.738Z,6424.00
2018-06-19T12:14:26.616Z,4708.00
2018-06-19T12:15:26.489Z,4852.00
2018-06-19T12:17:19.331Z,3732.00
2018-06-19T12:18:19.275Z,5772.00
2018-06-19T12:20:12.151Z,4412.00
2018-06-19T12:21:12.018Z,4748.00
2018-06-19T12:23:05.373Z,4112.00
2018-06-19T12:24:05.327Z,4808.00
2018-06-19T12:25:58.113Z,4316.00
2018-06-19T12:26:58.003Z,4356.00
2018-06-19T12:28:50.857Z,6012.00
2018-06-19T12:29:50.770Z,4724.00
2018-06-19T12:31:44.627Z,4396.00
2018-06-19T12:32:44.430Z,3472.00
2018-06-19T12:34:37.259Z,3092.00
2018-06-19T12:35:37.173Z,3040.00
2018-06-19T12:37:30.027Z,3116.00
2018-06-19T12:38:29.929Z,3280.00
2018-06-19T12:40:22.762Z,5320.00
2018-06-19T12:41:22.672Z,5044.00
2018-06-19T12:43:15.506Z,3108.00
2018-06-19T12:44:15.419Z,2776.00
2018-06-19T12:46:08.275Z,2656.00
2018-06-19T12:47:08.180Z,2560.00
2018-06-19T12:49:01.530Z,2508.00
2018-06-19T12:50:00.912Z,2572.00
2018-06-19T12:51:53.756Z,2444.00
2018-06-19T12:52:53.674Z,2464.00
2018-06-19T12:54:46.524Z,2496.00
2018-06-19T12:55:46.428Z,2460.00
2018-06-19T12:57:39.245Z,2400.00
2018-06-19T12:58:39.175Z,2312.00
2018-06-19T13:00:32.019Z,2204.00
2018-06-19T13:01:31.920Z,2216.00
2018-06-19T13:03:25.252Z,1952.00
2018-06-19T13:04:24.687Z,1928.00
2018-06-19T13:06:17.506Z,1960.00
2018-06-19T13:07:17.419Z,1936.00
2018-06-19T13:09:10.270Z,1812.00
2018-06-19T13:10:10.151Z,1748.00
2018-06-19T13:12:03.027Z,1668.00
2018-06-19T13:13:02.904Z,1652.00
2018-06-19T13:14:55.755Z,1648.00
2018-06-19T13:15:55.650Z,1688.00
2018-06-19T13:17:48.502Z,1812.00
2018-06-19T13:18:48.398Z,1896.00
2018-06-19T13:20:41.254Z,1892.00
2018-06-19T13:21:41.163Z,1828.00
2018-06-19T13:23:34.063Z,1628.00
2018-06-19T13:24:33.908Z,1560.00
2018-06-19T13:26:26.956Z,1484.00
2018-06-19T13:27:26.863Z,1432.00
2018-06-19T13:29:19.743Z,1348.00
2018-06-19T13:30:19.614Z,1304.00
2018-06-19T13:32:12.470Z,1260.00
2018-06-19T13:33:12.448Z,1260.00
2018-06-19T13:35:05.731Z,1280.00
2018-06-19T13:36:05.147Z,1320.00
2018-06-19T13:37:57.967Z,1360.00
2018-06-19T13:38:57.867Z,1368.00
2018-06-19T13:40:50.758Z,1384.00
2018-06-19T13:41:50.612Z,1392.00
2018-06-19T13:43:43.700Z,1412.00
2018-06-19T13:44:43.555Z,1440.00
2018-06-19T13:46:36.406Z,1416.00
2018-06-19T13:47:36.301Z,1416.00
2018-06-19T13:49:29.211Z,1404.00
2018-06-19T13:50:29.055Z,1416.00
2018-06-19T13:52:22.428Z,1460.00
2018-06-19T13:53:21.820Z,1484.00
2018-06-19T13:55:14.671Z,1520.00
2018-06-19T13:56:14.565Z,1520.00
2018-06-19T13:58:07.397Z,1500.00
2018-06-19T13:59:07.304Z,1536.00
2018-06-19T14:01:00.190Z,1552.00
2018-06-19T14:02:00.123Z,1520.00
2018-06-19T14:03:52.897Z,1456.00
2018-06-19T14:04:52.817Z,1476.00
2018-06-19T14:06:45.657Z,1424.00
2018-06-19T14:07:45.823Z,1364.00
2018-06-19T14:09:38.422Z,1344.00
2018-06-19T14:10:38.318Z,1388.00
2018-06-19T14:12:31.174Z,1452.00
2018-06-19T14:13:31.050Z,1484.00
2018-06-19T14:15:23.889Z,1508.00
2018-06-19T14:16:23.803Z,1532.00
2018-06-19T14:18:16.874Z,1572.00
2018-06-19T14:19:16.872Z,1592.00
2018-06-19T14:21:09.649Z,1524.00
2018-06-19T14:22:09.515Z,1408.00
2018-06-19T14:24:02.356Z,1228.00
2018-06-19T14:25:02.248Z,1188.00
2018-06-19T14:26:55.109Z,1152.00
2018-06-19T14:27:54.998Z,1172.00
2018-06-19T14:29:48.870Z,1200.00
2018-06-19T14:30:48.272Z,1224.00
2018-06-19T14:32:41.123Z,1360.00
2018-06-19T14:33:41.027Z,1436.00
2018-06-19T14:35:33.888Z,1556.00
2018-06-19T14:36:33.757Z,1648.00
2018-06-19T14:38:26.632Z,1880.00
2018-06-19T14:39:26.581Z,1984.00
2018-06-19T14:41:19.385Z,2184.00
2018-06-19T14:42:19.268Z,2256.00
2018-06-19T14:44:12.118Z,2248.00
2018-06-19T14:45:12.029Z,2172.00
2018-06-19T14:47:04.888Z,1964.00
2018-06-19T14:48:04.773Z,1880.00
2018-06-19T14:49:58.154Z,1864.00
2018-06-19T14:50:57.514Z,1960.00
2018-06-19T14:52:50.979Z,1852.00
2018-06-19T14:53:50.894Z,1788.00
2018-06-19T14:55:44.760Z,1592.00
2018-06-19T14:56:44.142Z,1508.00
2018-06-19T14:58:36.971Z,1364.00
2018-06-19T14:59:36.886Z,1312.00
2018-06-19T15:01:29.741Z,1252.00
2018-06-19T15:02:29.631Z,1228.00
2018-06-19T15:04:22.487Z,1208.00
2018-06-19T15:05:22.399Z,1200.00
2018-06-19T15:07:16.777Z,1176.00
2018-06-19T15:08:16.667Z,1184.00
2018-06-19T15:10:11.037Z,1184.00
2018-06-19T15:11:10.864Z,1200.00
2018-06-19T15:13:03.720Z,1268.00
2018-06-19T15:14:03.622Z,1296.00
2018-06-19T15:15:56.476Z,1352.00
2018-06-19T15:16:56.347Z,1368.00
2018-06-19T15:18:49.192Z,1388.00
2018-06-19T15:19:49.114Z,1392.00
2018-06-19T15:21:41.969Z,1368.00
2018-06-19T15:22:41.849Z,1336.00
2018-06-19T15:24:34.702Z,1280.00
2018-06-19T15:25:34.625Z,1256.00
2018-06-19T15:27:27.462Z,1272.00
2018-06-19T15:28:27.348Z,1292.00
2018-06-19T15:30:20.190Z,1348.00
2018-06-19T15:31:20.113Z,1384.00
2018-06-19T15:33:12.973Z,1452.00
2018-06-19T15:34:13.526Z,1492.00
2018-06-19T15:36:05.718Z,1520.00
2018-06-19T15:37:05.606Z,1520.00
2018-06-19T15:38:58.451Z,1504.00
2018-06-19T15:39:58.355Z,1500.00
2018-06-19T15:41:51.210Z,1496.00
2018-06-19T15:42:51.090Z,1484.00
2018-06-19T15:44:43.949Z,1420.00
2018-06-19T15:45:43.869Z,1364.00
2018-06-19T15:47:36.716Z,1244.00
2018-06-19T15:48:36.606Z,1188.00
2018-06-19T15:50:29.428Z,1108.00
2018-06-19T15:51:29.337Z,1072.00
2018-06-19T15:53:22.208Z,992.00
2018-06-19T15:54:22.096Z,968.00
2018-06-19T15:56:14.959Z,948.00
2018-06-19T15:57:14.866Z,900.00
2018-06-19T15:59:07.674Z,820.00
2018-06-19T16:00:07.598Z,792.00
2018-06-19T16:02:00.487Z,772.00
2018-06-19T16:03:00.348Z,780.00
2018-06-19T16:04:53.206Z,844.00
2018-06-19T16:05:53.091Z,872.00
2018-06-19T16:07:45.969Z,916.00
2018-06-19T16:08:45.855Z,948.00
2018-06-19T16:10:38.696Z,992.00
2018-06-19T16:11:38.591Z,1028.00
2018-06-19T16:13:31.480Z,1136.00
2018-06-19T16:14:31.467Z,1176.00
2018-06-19T16:16:24.206Z,1208.00
2018-06-19T16:17:24.105Z,1176.00
2018-06-19T16:19:19.902Z,1164.00
2018-06-19T16:20:19.812Z,1164.00
2018-06-19T16:22:12.675Z,1228.00
2018-06-19T16:23:12.560Z,1296.00
2018-06-19T16:25:05.472Z,1432.00
2018-06-19T16:26:05.306Z,1484.00
2018-06-19T16:27:58.175Z,1512.00
2018-06-19T16:28:58.061Z,1496.00
2018-06-19T16:30:51.417Z,1468.00
2018-06-19T16:31:51.339Z,1460.00
2018-06-19T16:33:44.188Z,1440.00
2018-06-19T16:34:44.084Z,1424.00
2018-06-19T16:36:37.334Z,1396.00
2018-06-19T16:37:37.285Z,1396.00
2018-06-19T16:39:30.076Z,1372.00
2018-06-19T16:40:29.974Z,1332.00
2018-06-19T16:42:23.256Z,1268.00
2018-06-19T16:43:23.137Z,1264.00
2018-06-19T16:45:16.019Z,1320.00
2018-06-19T16:46:15.886Z,1368.00
2018-06-19T16:48:08.733Z,1428.00
2018-06-19T16:49:08.649Z,1456.00
2018-06-19T16:51:01.517Z,1524.00
2018-06-19T16:52:01.387Z,1548.00
2018-06-19T16:53:54.255Z,1560.00
2018-06-19T16:54:54.140Z,1560.00
2018-06-19T16:56:47.094Z,1568.00
2018-06-19T16:57:46.976Z,1572.00
2018-06-19T16:59:40.237Z,1568.00
2018-06-19T17:00:40.146Z,1556.00
2018-06-19T17:02:33.434Z,1556.00
2018-06-19T17:03:33.311Z,1540.00
2018-06-19T17:05:26.140Z,1504.00
2018-06-19T17:06:26.079Z,1476.00
2018-06-19T17:08:18.921Z,1452.00
2018-06-19T17:09:18.836Z,1460.00
2018-06-19T17:11:12.218Z,1480.00
2018-06-19T17:12:11.553Z,1500.00
2018-06-19T17:14:04.464Z,1552.00
2018-06-19T17:15:04.304Z,1584.00
2018-06-19T17:16:57.161Z,1632.00
2018-06-19T17:17:57.053Z,1640.00
2018-06-19T17:19:49.889Z,1748.00
2018-06-19T17:20:49.808Z,1860.00
2018-06-19T17:22:42.691Z,2196.00
2018-06-19T17:23:42.575Z,2192.00
2018-06-19T17:25:35.415Z,2104.00
2018-06-19T17:26:35.305Z,2240.00
2018-06-19T17:28:28.172Z,2556.00
2018-06-19T17:29:28.050Z,2464.00
2018-06-19T17:31:21.497Z,2248.00
2018-06-19T17:32:21.316Z,2260.00
2018-06-19T17:34:14.160Z,2580.00
2018-06-19T17:35:14.131Z,2300.00
2018-06-19T17:37:06.936Z,2176.00
2018-06-19T17:38:06.809Z,1928.00
2018-06-19T17:39:59.653Z,1432.00
2018-06-19T17:40:59.621Z,1340.00
2018-06-19T17:42:52.425Z,1172.00
2018-06-19T17:43:52.317Z,1120.00
2018-06-19T17:45:45.162Z,1056.00